x

Fripp Nearshore (frp 2) (41033) Weather Station

9:00am - Wed 4th Mar 2015 All times are EST. -5 hours from GMT.

  • Wind
    7mph, 9mph gusts
  • Air Temp 52°f
  • Sea Pressure 1020mb
  • Fripp Nearshore (frp 2)
  • Fripp Nearshore (frp 2)

More Historic Weather Station data

Upgrade to MSW Pro to gain access to the past 30 days of data for over 8000 Wavebouys and Weather Stations around the globe.

Join Pro

Comparision Forecast

View Surf forecast
   
Wed 03/04 9:00am 7 9 mph 1020mb 52f
8:00am 9
mph
1019.8mb 53f
7:00am 9 11 mph 1019.5mb 53f
6:00am 9 11 mph 1019.2mb 53f
5:00am 9
mph
1018.9mb 52f
4:00am 9 11 mph 1018.4mb 54f
3:00am 9 11 mph 1018.9mb 53f
2:00am 4 7 mph 1019.1mb 52f
1:00am 2 4 mph 1019.3mb 54f
12:00am  -  2 mph 1020.1mb 53f
Tue 03/03 11:00pm 4
mph
1020.3mb 52f
10:00pm 7
mph
1020.3mb 51f
9:00pm 2 4 mph 1020.6mb 50f
8:00pm 4 7 mph 1020.8mb 50f
7:00pm 7 11 mph 1020.4mb 50f
6:00pm 9 11 mph 1020.4mb 51f
5:00pm 9
mph
1020.6mb 51f
4:00pm 9
mph
1020.8mb 51f
3:00pm 11
mph
1021.1mb 51f
2:00pm 9
mph
1021.9mb 51f
1:00pm 11 13 mph 1022.6mb 51f
12:00pm 13 16 mph 1023.6mb 51f
11:00am 13 16 mph 1024mb 52f
10:00am 16 20 mph 1024.6mb 50f
9:00am 16 20 mph 1023.9mb 50f
8:00am 13 16 mph 1024.1mb 50f
7:00am 13 16 mph 1023.4mb 50f
6:00am 11 13 mph 1023.3mb 50f
5:00am 11 13 mph 1022.8mb 50f
4:00am 9 11 mph 1022.7mb 50f
3:00am 7 9 mph 1022.3mb 50f
2:00am 11
mph
1022.7mb 51f
1:00am 7
mph
1023.2mb 51f
12:00am 7 9 mph 1023.9mb 51f
Mon 03/02 11:00pm 11 13 mph 1024.2mb 53f
10:00pm 4
mph
1023.7mb 51f
9:00pm 2 4 mph 1023.5mb 53f
8:00pm  -  2 mph 1023.1mb 52f
7:00pm 4
mph
1022.5mb 52f
6:00pm 9 11 mph 1022.1mb 53f
5:00pm 9 11 mph 1021.9mb 52f
4:00pm 11 13 mph 1022.1mb 53f
3:00pm 7 9 mph 1022.6mb 54f
2:00pm 7
mph
1023.3mb 54f
1:00pm 7
mph
1024.4mb 53f
12:00pm 9 11 mph 1025.3mb 52f
11:00am 4 7 mph 1025.5mb 50f
10:00am 4
mph
1025.5mb 49f
9:00am 4 7 mph 1025.5mb 48f
8:00am 9
mph
1025.2mb 48f
7:00am 7 9 mph 1025.2mb 47f
6:00am 4
mph
1024.6mb 47f
5:00am 4 7 mph 1025mb 47f
4:00am 4
mph
1025.3mb 46f
3:00am 4 7 mph 1025.9mb 46f
2:00am 4 7 mph 1026.4mb 46f
1:00am 4 7 mph 1026.9mb 46f
12:00am 2 4 mph 1027.1mb 46f
Sun 03/01 11:00pm 7 9 mph 1027.6mb 46f
10:00pm 11 13 mph 1027.9mb 46f
9:00pm 11 13 mph 1028mb 46f
8:00pm 11 13 mph 1028.1mb 46f
7:00pm 11 16 mph 1028mb 46f
6:00pm 11 13 mph 1027.5mb 46f
5:00pm 11 13 mph 1027.6mb 46f
4:00pm 7 9 mph 1027.7mb 46f
3:00pm 11 13 mph 1028.1mb 45f
2:00pm 13 16 mph 1028.2mb 45f
1:00pm 16 18 mph 1029.2mb 44f
12:00pm 16 20 mph 1030.3mb 43f
11:00am 16 18 mph 1031mb 43f
10:00am 18 20 mph 1030.8mb 43f
9:00am 13 16 mph 1031.1mb 43f
8:00am 16 18 mph 1031mb 44f
7:00am 16 20 mph 1030.5mb 44f
6:00am 18 20 mph 1030.4mb 44f
5:00am 20 22 mph 1029.8mb 44f
4:00am 20 27 mph 1029.6mb 45f
3:00am 20 25 mph 1030.7mb 44f
2:00am 25 31 mph 1030.9mb 45f
1:00am 25 29 mph 1031.7mb 46f
12:00am 22 27 mph 1032.2mb 46f
Sat 02/28 11:00pm 27 31 mph 1032.1mb 47f
10:00pm 29 31 mph 1032.6mb 47f
9:00pm 31 34 mph 1032.5mb 48f
8:00pm 25 29 mph 1032.5mb 48f
7:00pm 29 38 mph 1032.8mb 48f
5:00pm 27 31 mph 1032.4mb 47f
4:00pm 27 34 mph 1032.1mb 46f